createdAt,value
2019-01-24T00:00:49.791Z,13.50
2019-01-24T00:03:15.950Z,13.74
2019-01-24T00:05:42.157Z,13.63
2019-01-24T00:08:08.324Z,13.73
2019-01-24T00:10:34.492Z,13.71
2019-01-24T00:13:00.687Z,13.44
2019-01-24T00:15:26.852Z,13.60
2019-01-24T00:17:53.467Z,13.37
2019-01-24T00:20:19.758Z,13.17
2019-01-24T00:22:46.032Z,12.97
2019-01-24T00:25:12.593Z,13.33
2019-01-24T00:27:38.784Z,13.12
2019-01-24T00:30:13.005Z,12.84
2019-01-24T00:32:39.170Z,12.80
2019-01-24T00:35:06.571Z,13.11
2019-01-24T00:37:32.728Z,13.38
2019-01-24T00:39:58.891Z,12.85
2019-01-24T00:42:25.082Z,12.70
2019-01-24T00:44:51.237Z,12.76
2019-01-24T00:47:17.505Z,12.64
2019-01-24T00:49:43.691Z,12.79
2019-01-24T00:52:09.853Z,12.64
2019-01-24T00:54:36.019Z,13.33
2019-01-24T00:57:02.250Z,12.69
2019-01-24T00:59:28.503Z,12.61
2019-01-24T01:01:54.660Z,12.42
2019-01-24T01:04:20.855Z,13.02
2019-01-24T01:06:47.020Z,13.19
2019-01-24T01:09:13.188Z,12.81
2019-01-24T01:11:39.389Z,12.53
2019-01-24T01:14:05.701Z,12.96
2019-01-24T01:16:31.863Z,12.94
2019-01-24T01:18:58.155Z,13.29
2019-01-24T01:21:24.316Z,13.31
2019-01-24T01:23:50.476Z,13.10
2019-01-24T01:26:16.671Z,13.39
2019-01-24T01:28:42.931Z,13.21
2019-01-24T01:31:09.092Z,13.41
2019-01-24T01:33:35.286Z,13.39
2019-01-24T01:36:01.552Z,13.68
2019-01-24T01:38:27.816Z,13.91
2019-01-24T01:40:54.023Z,13.36
2019-01-24T01:43:20.193Z,13.69
2019-01-24T01:45:46.351Z,13.66
2019-01-24T01:48:12.543Z,13.18
2019-01-24T01:50:39.247Z,12.95
2019-01-24T01:53:05.408Z,13.31
2019-01-24T01:55:31.595Z,13.15
2019-01-24T01:57:57.758Z,13.37
2019-01-24T02:00:24.527Z,13.51
2019-01-24T02:02:50.727Z,13.22
2019-01-24T02:05:16.901Z,13.26
2019-01-24T02:07:43.151Z,12.89
2019-01-24T02:10:15.343Z,13.58
2019-01-24T02:12:42.308Z,13.94
2019-01-24T02:15:10.981Z,13.76
2019-01-24T02:17:37.178Z,13.70
2019-01-24T02:20:06.949Z,13.92
2019-01-24T02:22:33.116Z,13.89
2019-01-24T02:24:59.311Z,13.89
2019-01-24T02:27:25.471Z,13.25
2019-01-24T02:29:51.636Z,13.75
2019-01-24T02:32:17.834Z,13.68
2019-01-24T02:34:49.650Z,13.51
2019-01-24T02:37:12.055Z,13.29
2019-01-24T02:39:38.245Z,13.62
2019-01-24T02:42:04.409Z,13.31
2019-01-24T02:44:30.575Z,13.53
2019-01-24T02:46:56.782Z,13.49
2019-01-24T02:49:22.951Z,13.34
2019-01-24T02:51:49.114Z,13.63
2019-01-24T02:54:15.306Z,13.79
2019-01-24T02:56:41.467Z,13.43
2019-01-24T02:59:07.729Z,13.87
2019-01-24T03:01:34.031Z,14.10
2019-01-24T03:04:00.190Z,13.96
2019-01-24T03:06:26.349Z,14.03
2019-01-24T03:08:52.563Z,13.66
2019-01-24T03:11:18.718Z,13.76
2019-01-24T03:13:44.875Z,13.59
2019-01-24T03:16:11.133Z,14.12
2019-01-24T03:18:37.684Z,14.46
2019-01-24T03:21:03.951Z,13.71
2019-01-24T03:23:30.170Z,13.72
2019-01-24T03:25:56.366Z,13.84
2019-01-24T03:28:22.540Z,14.40
2019-01-24T03:30:48.639Z,14.10
2019-01-24T03:33:14.822Z,13.72
2019-01-24T03:35:40.994Z,14.15
2019-01-24T03:38:07.185Z,14.20
2019-01-24T03:40:33.343Z,13.75
2019-01-24T03:42:59.496Z,13.65
2019-01-24T03:45:25.795Z,14.11
2019-01-24T03:47:51.958Z,13.88
2019-01-24T03:50:21.650Z,14.10
2019-01-24T03:52:48.755Z,14.09
2019-01-24T03:55:17.818Z,14.24
2019-01-24T03:57:44.032Z,14.22
2019-01-24T04:00:13.315Z,13.93
2019-01-24T04:02:39.594Z,13.82
2019-01-24T04:05:11.784Z,14.24
2019-01-24T04:07:34.059Z,14.02
2019-01-24T04:10:00.238Z,13.75
2019-01-24T04:12:26.400Z,13.68
2019-01-24T04:14:52.613Z,13.71
2019-01-24T04:17:19.844Z,13.68
2019-01-24T04:19:46.113Z,13.42
2019-01-24T04:22:12.305Z,13.74
2019-01-24T04:24:38.473Z,13.53
2019-01-24T04:27:04.641Z,13.98
2019-01-24T04:29:30.846Z,13.49
2019-01-24T04:31:57.017Z,13.36
2019-01-24T04:34:23.177Z,13.05
2019-01-24T04:36:49.380Z,13.17
2019-01-24T04:39:15.548Z,13.42
2019-01-24T04:41:41.720Z,13.39
2019-01-24T04:44:07.911Z,13.18
2019-01-24T04:46:34.076Z,13.59
2019-01-24T04:49:00.253Z,14.18
2019-01-24T04:51:26.444Z,14.23
2019-01-24T04:53:52.608Z,13.68
2019-01-24T04:56:18.784Z,13.64
2019-01-24T04:58:44.989Z,13.29
2019-01-24T05:01:11.249Z,13.42
2019-01-24T05:03:37.415Z,13.02
2019-01-24T05:06:03.607Z,12.92
2019-01-24T05:08:29.771Z,13.21
2019-01-24T05:10:55.940Z,13.00
2019-01-24T05:13:22.129Z,13.04
2019-01-24T05:15:48.410Z,12.90
2019-01-24T05:18:14.571Z,12.87
2019-01-24T05:20:40.777Z,12.83
2019-01-24T05:23:06.935Z,12.94
2019-01-24T05:25:33.201Z,13.16
2019-01-24T05:27:59.505Z,13.06
2019-01-24T05:30:25.764Z,13.19
2019-01-24T05:32:52.225Z,13.16
2019-01-24T05:35:18.418Z,13.18
2019-01-24T05:37:46.493Z,13.41
2019-01-24T05:40:12.970Z,13.45
2019-01-24T05:42:39.175Z,13.40
2019-01-24T05:45:10.977Z,13.26
2019-01-24T05:47:37.138Z,12.80
2019-01-24T05:50:06.930Z,13.09
2019-01-24T05:52:33.196Z,13.33
2019-01-24T05:54:59.359Z,13.04
2019-01-24T05:57:25.669Z,13.05
2019-01-24T05:59:51.822Z,12.96
2019-01-24T06:02:18.088Z,13.25
2019-01-24T06:04:44.290Z,13.27
2019-01-24T06:07:10.445Z,13.28
2019-01-24T06:09:36.610Z,13.25
2019-01-24T06:12:02.810Z,13.51
2019-01-24T06:14:29.075Z,13.78
2019-01-24T06:16:55.242Z,13.53
2019-01-24T06:19:21.800Z,13.63
2019-01-24T06:21:47.966Z,13.50
2019-01-24T06:24:14.221Z,13.77
2019-01-24T06:26:40.423Z,13.76
2019-01-24T06:29:06.585Z,13.65
2019-01-24T06:31:32.770Z,13.93
2019-01-24T06:33:59.065Z,13.72
2019-01-24T06:36:25.232Z,13.88
2019-01-24T06:38:51.387Z,13.89
2019-01-24T06:41:17.584Z,14.10
2019-01-24T06:43:43.861Z,13.94
2019-01-24T06:46:10.026Z,13.80
2019-01-24T06:48:36.218Z,14.11
2019-01-24T06:51:02.398Z,14.31
2019-01-24T06:53:28.666Z,14.19
2019-01-24T06:55:54.872Z,13.83
2019-01-24T06:58:21.038Z,13.87
2019-01-24T07:00:47.307Z,14.01
2019-01-24T07:03:13.614Z,13.91
2019-01-24T07:05:39.803Z,14.28
2019-01-24T07:08:06.073Z,13.89
2019-01-24T07:10:32.641Z,14.13
2019-01-24T07:12:58.762Z,14.22
2019-01-24T07:15:24.925Z,14.31
2019-01-24T07:17:51.620Z,14.60
2019-01-24T07:20:19.590Z,14.49
2019-01-24T07:22:45.759Z,14.10
2019-01-24T07:25:15.354Z,14.33
2019-01-24T07:27:41.517Z,14.11
2019-01-24T07:30:10.887Z,14.43
2019-01-24T07:32:37.087Z,14.78
2019-01-24T07:35:06.855Z,15.32
2019-01-24T07:37:33.015Z,14.95
2019-01-24T07:39:59.212Z,15.33
2019-01-24T07:42:25.379Z,15.20
2019-01-24T07:44:51.539Z,15.03
2019-01-24T07:47:17.736Z,14.77
2019-01-24T07:49:43.908Z,15.07
2019-01-24T07:52:10.074Z,14.73
2019-01-24T07:54:36.282Z,14.35
2019-01-24T07:57:02.544Z,14.68
2019-01-24T07:59:28.703Z,14.82
2019-01-24T08:01:54.903Z,15.03
2019-01-24T08:04:21.074Z,15.03
2019-01-24T08:06:47.270Z,14.49
2019-01-24T08:09:13.573Z,15.21
2019-01-24T08:11:39.743Z,15.35
2019-01-24T08:14:05.911Z,15.12
2019-01-24T08:16:32.099Z,15.12
2019-01-24T08:18:58.270Z,15.18
2019-01-24T08:21:24.470Z,15.38
2019-01-24T08:23:50.662Z,15.65
2019-01-24T08:26:16.920Z,15.67
2019-01-24T08:28:43.090Z,16.08
2019-01-24T08:31:09.306Z,16.04
2019-01-24T08:33:35.567Z,16.53
2019-01-24T08:36:01.724Z,16.89
2019-01-24T08:38:28.031Z,16.95
2019-01-24T08:40:54.307Z,17.01
2019-01-24T08:43:23.362Z,16.97
2019-01-24T08:45:49.553Z,16.93
2019-01-24T08:48:15.706Z,17.20
2019-01-24T08:50:41.880Z,17.68
2019-01-24T08:53:08.069Z,16.79
2019-01-24T08:55:36.337Z,17.30
2019-01-24T08:58:03.389Z,17.35
2019-01-24T09:00:29.595Z,17.04
2019-01-24T09:02:56.264Z,17.24
2019-01-24T09:05:22.533Z,16.47
2019-01-24T09:07:48.943Z,17.04
2019-01-24T09:10:24.928Z,17.30
2019-01-24T09:12:51.218Z,17.33
2019-01-24T09:15:17.503Z,16.48
2019-01-24T09:17:43.637Z,17.23
2019-01-24T09:20:15.902Z,17.22
2019-01-24T09:22:42.183Z,17.02
2019-01-24T09:25:09.339Z,17.11
2019-01-24T09:27:35.516Z,17.82
2019-01-24T09:30:03.085Z,17.29
2019-01-24T09:32:29.235Z,17.67
2019-01-24T09:34:55.417Z,17.28
2019-01-24T09:37:21.584Z,17.53
2019-01-24T09:39:47.862Z,17.53
2019-01-24T09:42:14.704Z,17.64
2019-01-24T09:44:40.953Z,16.79
2019-01-24T09:47:07.112Z,17.19
2019-01-24T09:49:33.295Z,17.50
2019-01-24T09:51:59.467Z,17.95
2019-01-24T09:54:25.976Z,17.64
2019-01-24T09:56:52.170Z,17.57
2019-01-24T09:59:18.337Z,17.00
2019-01-24T10:01:45.594Z,17.35
2019-01-24T10:04:12.134Z,16.80
2019-01-24T10:06:38.384Z,16.38
2019-01-24T10:09:05.738Z,17.30
2019-01-24T10:11:31.945Z,17.31
2019-01-24T10:13:58.106Z,16.92
2019-01-24T10:16:24.382Z,17.09
2019-01-24T10:18:51.127Z,17.26
2019-01-24T10:21:17.282Z,16.88
2019-01-24T10:23:43.596Z,17.29
2019-01-24T10:26:09.791Z,17.86
2019-01-24T10:28:35.940Z,17.98
2019-01-24T10:31:02.197Z,17.42
2019-01-24T10:33:28.391Z,16.96
2019-01-24T10:35:54.651Z,16.27
2019-01-24T10:38:20.804Z,17.02
2019-01-24T10:40:47.083Z,15.89
2019-01-24T10:43:13.238Z,16.01
2019-01-24T10:45:45.768Z,15.49
2019-01-24T10:48:11.952Z,16.35
2019-01-24T10:50:38.136Z,16.92
2019-01-24T10:53:04.428Z,16.03
2019-01-24T10:55:30.596Z,16.06
2019-01-24T10:57:58.483Z,16.48
2019-01-24T11:00:27.643Z,16.41
2019-01-24T11:02:53.932Z,16.62
2019-01-24T11:05:20.101Z,16.59
2019-01-24T11:07:46.982Z,16.82
2019-01-24T11:10:16.272Z,16.62
2019-01-24T11:12:42.446Z,16.58
2019-01-24T11:15:17.020Z,16.49
2019-01-24T11:17:43.214Z,16.66
2019-01-24T11:20:12.479Z,16.29
2019-01-24T11:22:38.637Z,16.44
2019-01-24T11:25:09.319Z,16.96
2019-01-24T11:27:35.645Z,18.08
2019-01-24T11:30:03.899Z,17.29
2019-01-24T11:32:30.079Z,17.29
2019-01-24T11:34:56.227Z,17.35
2019-01-24T11:37:22.385Z,17.68
2019-01-24T11:39:48.685Z,17.82
2019-01-24T11:42:14.849Z,17.90
2019-01-24T11:44:41.039Z,17.06
2019-01-24T11:47:07.245Z,17.03
2019-01-24T11:49:33.393Z,16.68
2019-01-24T11:51:59.552Z,16.76
2019-01-24T11:54:25.741Z,17.37
2019-01-24T11:56:51.993Z,16.21
2019-01-24T11:59:18.156Z,15.73
2019-01-24T12:01:44.469Z,15.54
2019-01-24T12:04:10.641Z,15.47
2019-01-24T12:06:36.810Z,15.69
2019-01-24T12:09:06.055Z,15.72
2019-01-24T12:11:32.211Z,15.58
2019-01-24T12:13:58.395Z,15.51
2019-01-24T12:16:24.600Z,15.74
2019-01-24T12:18:50.808Z,15.22
2019-01-24T12:21:24.428Z,15.11
2019-01-24T12:23:50.627Z,15.36
2019-01-24T12:26:16.840Z,15.44
2019-01-24T12:28:43.113Z,15.57
2019-01-24T12:31:09.304Z,15.50
2019-01-24T12:33:35.674Z,15.81
2019-01-24T12:36:01.817Z,15.62
2019-01-24T12:38:27.995Z,15.35
2019-01-24T12:40:54.190Z,15.48
2019-01-24T12:43:23.241Z,15.74
2019-01-24T12:45:49.538Z,15.92
2019-01-24T12:48:15.694Z,15.48
2019-01-24T12:50:41.864Z,15.64
2019-01-24T12:53:08.063Z,16.03
2019-01-24T12:55:34.227Z,16.40
2019-01-24T12:58:00.391Z,16.58
2019-01-24T13:00:29.689Z,16.39
2019-01-24T13:02:55.940Z,16.21
2019-01-24T13:05:22.213Z,16.07
2019-01-24T13:07:48.519Z,16.67
2019-01-24T13:10:17.377Z,15.69
2019-01-24T13:12:43.659Z,14.11
2019-01-24T13:15:15.860Z,12.14
2019-01-24T13:17:42.019Z,11.26
2019-01-24T13:20:10.876Z,10.40
2019-01-24T13:22:37.059Z,10.19
2019-01-24T13:25:09.346Z,10.42
2019-01-24T13:27:35.563Z,10.42
2019-01-24T13:30:02.126Z,10.11
2019-01-24T13:32:28.460Z,9.80
2019-01-24T13:34:54.628Z,10.15
2019-01-24T13:37:25.736Z,9.99
2019-01-24T13:39:48.897Z,9.77
2019-01-24T13:42:15.161Z,9.05
2019-01-24T13:44:41.358Z,8.59
2019-01-24T13:47:07.517Z,8.39
2019-01-24T13:49:33.776Z,7.98
2019-01-24T13:52:00.126Z,7.10
2019-01-24T13:54:26.473Z,6.66
2019-01-24T13:56:52.673Z,6.47
2019-01-24T13:59:19.115Z,6.67
2019-01-24T14:01:45.265Z,6.52
2019-01-24T14:04:13.230Z,6.49
2019-01-24T14:06:39.489Z,6.53
2019-01-24T14:09:07.735Z,6.40
2019-01-24T14:11:33.896Z,6.40
2019-01-24T14:14:00.080Z,6.30
2019-01-24T14:16:26.235Z,6.44
2019-01-24T14:18:52.398Z,6.11
2019-01-24T14:21:18.692Z,6.72
2019-01-24T14:23:44.948Z,6.53
2019-01-24T14:26:11.103Z,6.49
2019-01-24T14:28:37.340Z,6.38
2019-01-24T14:31:03.795Z,6.48
2019-01-24T14:33:29.948Z,6.11
2019-01-24T14:35:58.420Z,6.23
2019-01-24T14:38:24.579Z,6.29
2019-01-24T14:40:50.748Z,6.36
2019-01-24T14:43:16.919Z,6.36
2019-01-24T14:45:43.185Z,6.19
2019-01-24T14:48:09.454Z,6.31
2019-01-24T14:50:35.648Z,6.03
2019-01-24T14:53:01.803Z,6.15
2019-01-24T14:55:28.062Z,5.99
2019-01-24T14:57:54.254Z,5.89
2019-01-24T15:00:32.901Z,5.87
2019-01-24T15:02:59.088Z,5.75
2019-01-24T15:05:25.540Z,5.89
2019-01-24T15:07:51.692Z,5.54
2019-01-24T15:10:17.878Z,5.75
2019-01-24T15:12:44.036Z,5.70
2019-01-24T15:15:14.723Z,5.97
2019-01-24T15:17:41.007Z,5.81
2019-01-24T15:20:12.503Z,5.54
2019-01-24T15:22:39.003Z,5.75
2019-01-24T15:25:08.489Z,5.53
2019-01-24T15:27:34.648Z,5.82
2019-01-24T15:30:00.863Z,5.74
2019-01-24T15:32:27.144Z,5.67
2019-01-24T15:34:53.352Z,5.61
2019-01-24T15:37:19.621Z,5.56
2019-01-24T15:39:46.044Z,5.62
2019-01-24T15:42:12.352Z,5.47
2019-01-24T15:44:38.535Z,5.52
2019-01-24T15:47:05.528Z,5.69
2019-01-24T15:49:31.851Z,5.38
2019-01-24T15:51:58.079Z,5.42
2019-01-24T15:54:24.262Z,5.47
2019-01-24T15:56:50.529Z,5.34
2019-01-24T15:59:16.757Z,5.15
2019-01-24T16:01:42.965Z,5.29
2019-01-24T16:04:09.224Z,5.26
2019-01-24T16:06:35.387Z,5.31
2019-01-24T16:09:01.578Z,5.19
2019-01-24T16:11:27.728Z,5.21
2019-01-24T16:13:53.890Z,5.10
2019-01-24T16:16:20.079Z,5.18
2019-01-24T16:18:46.369Z,5.46
2019-01-24T16:21:12.514Z,5.34
2019-01-24T16:23:38.699Z,5.32
2019-01-24T16:26:05.262Z,5.48
2019-01-24T16:28:31.420Z,5.01
2019-01-24T16:30:57.782Z,5.27
2019-01-24T16:33:23.932Z,5.21
2019-01-24T16:35:50.090Z,5.26
2019-01-24T16:38:16.278Z,5.12
2019-01-24T16:40:42.419Z,5.24
2019-01-24T16:43:08.675Z,5.37
2019-01-24T16:45:34.871Z,5.66
2019-01-24T16:48:01.010Z,5.23
2019-01-24T16:50:27.266Z,5.35
2019-01-24T16:52:53.452Z,5.46
2019-01-24T16:55:19.698Z,5.37
2019-01-24T16:57:46.954Z,5.49
2019-01-24T17:00:35.263Z,5.43
2019-01-24T17:03:01.442Z,5.67
2019-01-24T17:05:27.733Z,5.39
2019-01-24T17:07:54.026Z,5.41
2019-01-24T17:10:22.279Z,5.36
2019-01-24T17:12:48.434Z,5.42
2019-01-24T17:15:16.926Z,5.50
2019-01-24T17:17:43.116Z,5.37
2019-01-24T17:20:15.694Z,5.35
2019-01-24T17:22:41.979Z,5.38
2019-01-24T17:25:10.933Z,5.27
2019-01-24T17:27:37.088Z,5.45
2019-01-24T17:30:09.657Z,5.48
2019-01-24T17:32:35.922Z,5.59
2019-01-24T17:35:03.379Z,5.40
2019-01-24T17:37:29.675Z,5.40
2019-01-24T17:39:56.234Z,5.65
2019-01-24T17:42:22.475Z,5.67
2019-01-24T17:44:48.730Z,5.53
2019-01-24T17:47:14.968Z,5.58
2019-01-24T17:49:41.120Z,5.59
2019-01-24T17:52:07.412Z,5.53
2019-01-24T17:54:33.675Z,5.80
2019-01-24T17:56:59.865Z,5.30
2019-01-24T17:59:26.048Z,5.59
2019-01-24T18:01:52.292Z,5.59
2019-01-24T18:04:21.777Z,5.99
2019-01-24T18:06:46.530Z,5.65
2019-01-24T18:09:12.806Z,5.69
2019-01-24T18:11:39.323Z,5.84
2019-01-24T18:14:05.630Z,5.73
2019-01-24T18:16:31.900Z,5.78
2019-01-24T18:18:58.066Z,5.96
2019-01-24T18:21:24.265Z,5.75
2019-01-24T18:23:50.762Z,5.74
2019-01-24T18:26:17.060Z,5.68
2019-01-24T18:28:43.264Z,5.49
2019-01-24T18:31:09.436Z,5.87
2019-01-24T18:33:35.645Z,6.22
2019-01-24T18:36:01.932Z,6.12
2019-01-24T18:38:28.099Z,6.27
2019-01-24T18:40:54.256Z,6.01
2019-01-24T18:43:20.440Z,6.05
2019-01-24T18:45:52.187Z,6.02
2019-01-24T18:48:18.358Z,5.91
2019-01-24T18:50:45.262Z,6.01
2019-01-24T18:53:11.561Z,6.13
2019-01-24T18:55:37.711Z,6.04
2019-01-24T18:58:04.396Z,6.21
2019-01-24T19:00:32.551Z,6.46
2019-01-24T19:02:58.708Z,6.58
2019-01-24T19:05:24.894Z,6.62
2019-01-24T19:07:51.048Z,6.29
2019-01-24T19:10:17.300Z,6.65
2019-01-24T19:12:43.593Z,6.26
2019-01-24T19:15:16.652Z,6.08
2019-01-24T19:17:43.198Z,6.24
2019-01-24T19:20:11.290Z,5.96
2019-01-24T19:22:37.447Z,6.45
2019-01-24T19:25:07.205Z,6.78
2019-01-24T19:27:33.387Z,6.94
2019-01-24T19:29:59.542Z,6.88
2019-01-24T19:32:25.694Z,6.59
2019-01-24T19:34:51.886Z,6.69
2019-01-24T19:37:18.034Z,6.69
2019-01-24T19:39:44.186Z,6.85
2019-01-24T19:42:10.379Z,6.48
2019-01-24T19:44:36.541Z,6.49
2019-01-24T19:47:02.813Z,6.71
2019-01-24T19:49:29.001Z,6.86
2019-01-24T19:51:55.152Z,6.91
2019-01-24T19:54:21.803Z,5.98
2019-01-24T19:56:47.987Z,6.25
2019-01-24T19:59:14.143Z,6.38
2019-01-24T20:01:40.298Z,6.16
2019-01-24T20:04:06.486Z,6.33
2019-01-24T20:06:32.640Z,6.68
2019-01-24T20:09:00.316Z,6.59
2019-01-24T20:11:26.845Z,6.64
2019-01-24T20:13:53.007Z,6.56
2019-01-24T20:16:19.272Z,6.28
2019-01-24T20:18:45.619Z,6.51
2019-01-24T20:21:11.904Z,6.70
2019-01-24T20:23:38.052Z,6.69
2019-01-24T20:26:04.335Z,6.87
2019-01-24T20:28:30.654Z,6.45
2019-01-24T20:30:57.051Z,6.50
2019-01-24T20:33:23.363Z,6.58
2019-01-24T20:35:51.473Z,6.39
2019-01-24T20:38:17.789Z,6.28
2019-01-24T20:40:44.085Z,6.59
2019-01-24T20:43:11.641Z,6.34
2019-01-24T20:45:38.523Z,6.36
2019-01-24T20:48:04.714Z,6.35
2019-01-24T20:50:30.882Z,6.26
2019-01-24T20:52:57.039Z,6.09
2019-01-24T20:55:23.432Z,6.60
2019-01-24T20:57:49.594Z,6.82
2019-01-24T21:00:21.411Z,6.59
2019-01-24T21:02:47.601Z,6.60
2019-01-24T21:05:19.616Z,6.13
2019-01-24T21:07:45.811Z,6.42
2019-01-24T21:10:20.999Z,6.38
2019-01-24T21:12:47.163Z,6.02
2019-01-24T21:15:15.515Z,6.24
2019-01-24T21:17:41.806Z,6.46
2019-01-24T21:20:11.371Z,6.70
2019-01-24T21:22:37.628Z,6.28
2019-01-24T21:25:07.619Z,6.40
2019-01-24T21:27:34.899Z,6.61
2019-01-24T21:30:01.067Z,6.59
2019-01-24T21:32:27.366Z,6.52
2019-01-24T21:34:53.531Z,6.28
2019-01-24T21:37:20.545Z,6.02
2019-01-24T21:39:46.726Z,6.01
2019-01-24T21:42:12.893Z,5.77
2019-01-24T21:44:39.462Z,6.20
2019-01-24T21:47:05.630Z,6.43
2019-01-24T21:49:31.785Z,6.43
2019-01-24T21:51:57.945Z,6.43
2019-01-24T21:54:24.244Z,6.67
2019-01-24T21:56:50.396Z,6.79
2019-01-24T21:59:16.547Z,6.87
2019-01-24T22:01:42.731Z,6.89
2019-01-24T22:04:08.878Z,6.47
2019-01-24T22:06:35.028Z,6.11
2019-01-24T22:09:01.306Z,6.24
2019-01-24T22:11:27.507Z,6.33
2019-01-24T22:13:53.972Z,6.06
2019-01-24T22:16:20.267Z,6.02
2019-01-24T22:18:46.411Z,5.89
2019-01-24T22:21:12.575Z,6.19
2019-01-24T22:23:38.775Z,6.12
2019-01-24T22:26:05.131Z,5.91
2019-01-24T22:28:31.296Z,5.75
2019-01-24T22:30:58.280Z,6.12
2019-01-24T22:33:24.434Z,6.16
2019-01-24T22:35:50.601Z,6.43
2019-01-24T22:38:16.805Z,6.30
2019-01-24T22:40:42.964Z,6.54
2019-01-24T22:43:09.134Z,7.01
2019-01-24T22:45:35.339Z,7.07
2019-01-24T22:48:01.502Z,6.54
2019-01-24T22:50:27.671Z,6.40
2019-01-24T22:52:53.861Z,6.26
2019-01-24T22:55:20.022Z,6.34
2019-01-24T22:57:46.179Z,6.26
2019-01-24T23:00:49.381Z,6.73
2019-01-24T23:03:22.027Z,6.54
2019-01-24T23:05:48.289Z,6.35
2019-01-24T23:08:14.485Z,6.85
2019-01-24T23:10:40.642Z,6.50
2019-01-24T23:13:06.798Z,6.76
2019-01-24T23:15:33.098Z,6.94
2019-01-24T23:17:59.361Z,7.00
2019-01-24T23:20:25.520Z,6.60
2019-01-24T23:22:51.928Z,6.63
2019-01-24T23:25:18.088Z,7.05
2019-01-24T23:27:45.143Z,7.19
2019-01-24T23:30:11.954Z,7.07
2019-01-24T23:32:38.109Z,7.03
2019-01-24T23:35:05.464Z,6.78
2019-01-24T23:37:31.662Z,6.39
2019-01-24T23:39:57.864Z,6.47
2019-01-24T23:42:24.024Z,6.37
2019-01-24T23:44:50.201Z,6.21
2019-01-24T23:47:16.360Z,6.38
2019-01-24T23:49:42.521Z,6.52
2019-01-24T23:52:08.813Z,6.72
2019-01-24T23:54:35.072Z,6.86
2019-01-24T23:57:01.238Z,6.83
2019-01-24T23:59:28.934Z,6.44
